No.10 Hasshomaru — JD2992 — position and weather

sailwx.info

Track history (hours):
 
Tides and Currents Weather Stations Pressure Air Temp Water Temp Dewpoint Dewpoint Depression Visibility Wind Speed Wind Dir Waves Ship Positions

No.10 Hasshomaru

Last reported at 2017-May-12 15:31 UTC. Time now 2017-May-27 19:24 UTC.
Position N 34°54' E 140°02'.
Warning: this ship's position is 15 days out of date.

Length 105 m; draft 5.4 m.

Type: Tanker. MMSI: 431001112.

Date/timePositionNaut miles runAvg speedWind from/ knotsBaromVisibWave heightAir tempDewpointWater temp
2017-May-12 15:31N 34°54' E 140°02'013.6
2017-May-12 15:30N 34°54' E 140°02'813.9
2017-May-12 14:55N 34°52' E 139°52'612.5
2017-May-12 14:27N 34°54' E 139°46'1314.1
2017-May-12 13:30N 35°08' E 139°45'714.2
2017-May-12 13:00N 35°15' E 139°46'612.3
2017-May-12 12:31N 35°20' E 139°43'713.5
2017-May-12 12:00N 35°26' E 139°46'4 9.0
2017-May-12 11:31N 35°31' E 139°46'0 0.1
2017-May-12 11:00N 35°31' E 139°46'0 0.0
2017-May-12 10:30N 35°31' E 139°46'0 0.0
2017-May-12 10:00N 35°31' E 139°46'0 0.0
2017-May-12 09:30N 35°31' E 139°46'0 0.0
2017-May-12 09:00N 35°31' E 139°46'0 0.0
2017-May-12 08:30N 35°31' E 139°46'0 0.0
2017-May-12 07:57N 35°31' E 139°46'0 0.0
2017-May-12 07:30N 35°31' E 139°46'0 0.0
2017-May-12 07:00N 35°31' E 139°46'0 0.5
2017-May-12 06:30N 35°31' E 139°46'4 7.2
2017-May-12 06:01N 35°29' E 139°42'611.3
2017-May-12 05:30N 35°24' E 139°44'1 2.3
2017-May-12 05:00N 35°22' E 139°44'0 0.0
2017-May-12 04:30N 35°22' E 139°44'0 0.0
2017-May-12 03:57N 35°22' E 139°44'0 0.2
2017-May-12 03:30N 35°22' E 139°44'4 8.5
2017-May-12 03:00N 35°18' E 139°45'510.8
2017-May-12 02:30N 35°13' E 139°47'612.6
2017-May-12 02:00N 35°07' E 139°46'713.3
2017-May-12 01:30N 35°00' E 139°44'612.2
2017-May-12 01:00N 34°54' E 139°46'  
2017-May-06 08:27N 34°54' E 139°60'714.4
2017-May-06 07:59N 34°52' E 139°52'713.6
2017-May-06 07:27N 34°56' E 139°45'613.4
2017-May-06 07:00N 35°02' E 139°43'613.0
2017-May-06 06:30N 35°08' E 139°45'612.5
2017-May-06 06:00N 35°15' E 139°46'611.1
2017-May-06 05:30N 35°19' E 139°43'510.3
2017-May-06 05:00N 35°25' E 139°43'612.6
2017-May-06 04:30N 35°30' E 139°48'2 2.5
2017-May-06 03:49N 35°31' E 139°46'0 0.0
2017-May-06 03:25N 35°31' E 139°46'0 0.0
2017-May-06 02:58N 35°31' E 139°46'0 0.0
2017-May-06 02:28N 35°31' E 139°46'0 0.0
2017-May-06 01:55N 35°31' E 139°46'0 0.0
2017-May-06 01:28N 35°31' E 139°46'0 0.0
2017-May-06 00:58N 35°31' E 139°46'0 0.0
2017-May-06 00:28N 35°31' E 139°46'0 0.0
2017-May-05 23:58N 35°31' E 139°46'2 3.9
2017-May-05 23:31N 35°30' E 139°44'4 7.8
2017-May-05 23:01N 35°26' E 139°44'5 9.4
2017-May-05 22:31N 35°21' E 139°44'0 0.1
2017-May-05 21:58N 35°21' E 139°44'0 0.0
2017-May-05 21:28N 35°21' E 139°44'0 0.0
2017-May-05 20:58N 35°21' E 139°44'0 0.0
2017-May-05 20:28N 35°21' E 139°44'0 0.0
2017-May-05 19:58N 35°21' E 139°44'0 0.0
2017-May-05 19:28N 35°21' E 139°44'0 0.0
2017-May-05 18:58N 35°21' E 139°44'0 0.0
2017-May-05 18:28N 35°21' E 139°44'0 0.0
2017-May-05 17:58N 35°21' E 139°44'0 0.0
2017-May-05 17:28N 35°21' E 139°44'0 0.1
2017-May-05 16:58N 35°21' E 139°44'0 0.1
2017-May-05 16:28N 35°21' E 139°44'0 0.1
2017-May-05 15:52N 35°21' E 139°44'0 0.0
2017-May-05 15:28N 35°21' E 139°44'0 0.0
2017-May-05 14:52N 35°21' E 139°44'0 0.0
2017-May-05 14:28N 35°21' E 139°44'0 0.0
2017-May-05 13:28N 35°21' E 139°44'0 0.0
2017-May-05 12:55N 35°21' E 139°44'0 0.0
2017-May-05 12:22N 35°21' E 139°44'0 0.0
2017-May-05 11:58N 35°21' E 139°44'0 0.0
2017-May-05 11:28N 35°21' E 139°44'0 0.0
2017-May-05 10:58N 35°21' E 139°44'0 0.0
2017-May-05 10:28N 35°21' E 139°44'0 0.0
2017-May-05 09:58N 35°21' E 139°44'0 0.2
2017-May-05 09:28N 35°21' E 139°44'0 0.0
2017-May-05 08:58N 35°21' E 139°44'0 0.0
2017-May-05 08:28N 35°21' E 139°44'2 3.4
2017-May-05 08:01N 35°20' E 139°43'510.9
2017-May-05 07:30N 35°15' E 139°47'611.7
2017-May-05 07:01N 35°09' E 139°46'713.8
2017-May-05 06:30N 35°03' E 139°45'712.6
2017-May-05 05:57N 34°56' E 139°46'  
Track history (hours):
 
Tides and Currents Weather Stations Pressure Air Temp Water Temp Dewpoint Dewpoint Depression Visibility Wind Speed Wind Dir Waves Ship Positions

No.10 Hasshomaru

Last reported at 2017-May-12 15:31 UTC. Time now 2017-May-27 19:24 UTC.
Position N 34°54' E 140°02'.
Warning: this ship's position is 15 days out of date.

Length 105 m; draft 5.4 m.

Type: Tanker. MMSI: 431001112.

Date/timePositionNaut miles runAvg speedWind from/ knotsBaromVisibWave heightAir tempDewpointWater temp
2017-May-12 15:31N 34°54' E 140°02'013.6
2017-May-12 15:30N 34°54' E 140°02'813.9
2017-May-12 14:55N 34°52' E 139°52'612.5
2017-May-12 14:27N 34°54' E 139°46'1314.1
2017-May-12 13:30N 35°08' E 139°45'714.2
2017-May-12 13:00N 35°15' E 139°46'612.3
2017-May-12 12:31N 35°20' E 139°43'713.5
2017-May-12 12:00N 35°26' E 139°46'4 9.0
2017-May-12 11:31N 35°31' E 139°46'0 0.1
2017-May-12 11:00N 35°31' E 139°46'0 0.0
2017-May-12 10:30N 35°31' E 139°46'0 0.0
2017-May-12 10:00N 35°31' E 139°46'0 0.0
2017-May-12 09:30N 35°31' E 139°46'0 0.0
2017-May-12 09:00N 35°31' E 139°46'0 0.0
2017-May-12 08:30N 35°31' E 139°46'0 0.0
2017-May-12 07:57N 35°31' E 139°46'0 0.0
2017-May-12 07:30N 35°31' E 139°46'0 0.0
2017-May-12 07:00N 35°31' E 139°46'0 0.5
2017-May-12 06:30N 35°31' E 139°46'4 7.2
2017-May-12 06:01N 35°29' E 139°42'611.3
2017-May-12 05:30N 35°24' E 139°44'1 2.3
2017-May-12 05:00N 35°22' E 139°44'0 0.0
2017-May-12 04:30N 35°22' E 139°44'0 0.0
2017-May-12 03:57N 35°22' E 139°44'0 0.2
2017-May-12 03:30N 35°22' E 139°44'4 8.5
2017-May-12 03:00N 35°18' E 139°45'510.8
2017-May-12 02:30N 35°13' E 139°47'612.6
2017-May-12 02:00N 35°07' E 139°46'713.3
2017-May-12 01:30N 35°00' E 139°44'612.2
2017-May-12 01:00N 34°54' E 139°46'  
2017-May-06 08:27N 34°54' E 139°60'714.4
2017-May-06 07:59N 34°52' E 139°52'713.6
2017-May-06 07:27N 34°56' E 139°45'613.4
2017-May-06 07:00N 35°02' E 139°43'613.0
2017-May-06 06:30N 35°08' E 139°45'612.5
2017-May-06 06:00N 35°15' E 139°46'611.1
2017-May-06 05:30N 35°19' E 139°43'510.3
2017-May-06 05:00N 35°25' E 139°43'612.6
2017-May-06 04:30N 35°30' E 139°48'2 2.5
2017-May-06 03:49N 35°31' E 139°46'0 0.0
2017-May-06 03:25N 35°31' E 139°46'0 0.0
2017-May-06 02:58N 35°31' E 139°46'0 0.0
2017-May-06 02:28N 35°31' E 139°46'0 0.0
2017-May-06 01:55N 35°31' E 139°46'0 0.0
2017-May-06 01:28N 35°31' E 139°46'0 0.0
2017-May-06 00:58N 35°31' E 139°46'0 0.0
2017-May-06 00:28N 35°31' E 139°46'0 0.0
2017-May-05 23:58N 35°31' E 139°46'2 3.9
2017-May-05 23:31N 35°30' E 139°44'4 7.8
2017-May-05 23:01N 35°26' E 139°44'5 9.4
2017-May-05 22:31N 35°21' E 139°44'0 0.1
2017-May-05 21:58N 35°21' E 139°44'0 0.0
2017-May-05 21:28N 35°21' E 139°44'0 0.0
2017-May-05 20:58N 35°21' E 139°44'0 0.0
2017-May-05 20:28N 35°21' E 139°44'0 0.0
2017-May-05 19:58N 35°21' E 139°44'0 0.0
2017-May-05 19:28N 35°21' E 139°44'0 0.0
2017-May-05 18:58N 35°21' E 139°44'0 0.0
2017-May-05 18:28N 35°21' E 139°44'0 0.0
2017-May-05 17:58N 35°21' E 139°44'0 0.0
2017-May-05 17:28N 35°21' E 139°44'0 0.1
2017-May-05 16:58N 35°21' E 139°44'0 0.1
2017-May-05 16:28N 35°21' E 139°44'0 0.1
2017-May-05 15:52N 35°21' E 139°44'0 0.0
2017-May-05 15:28N 35°21' E 139°44'0 0.0
2017-May-05 14:52N 35°21' E 139°44'0 0.0
2017-May-05 14:28N 35°21' E 139°44'0 0.0
2017-May-05 13:28N 35°21' E 139°44'0 0.0
2017-May-05 12:55N 35°21' E 139°44'0 0.0
2017-May-05 12:22N 35°21' E 139°44'0 0.0
2017-May-05 11:58N 35°21' E 139°44'0 0.0
2017-May-05 11:28N 35°21' E 139°44'0 0.0
2017-May-05 10:58N 35°21' E 139°44'0 0.0
2017-May-05 10:28N 35°21' E 139°44'0 0.0
2017-May-05 09:58N 35°21' E 139°44'0 0.2
2017-May-05 09:28N 35°21' E 139°44'0 0.0
2017-May-05 08:58N 35°21' E 139°44'0 0.0
2017-May-05 08:28N 35°21' E 139°44'2 3.4
2017-May-05 08:01N 35°20' E 139°43'510.9
2017-May-05 07:30N 35°15' E 139°47'611.7
2017-May-05 07:01N 35°09' E 139°46'713.8
2017-May-05 06:30N 35°03' E 139°45'712.6
2017-May-05 05:57N 34°56' E 139°46'  

Dump ship's entire track history